createdAt,value
2023-03-20T00:01:33.453Z,6.65
2023-03-20T00:06:37.291Z,6.42
2023-03-20T00:11:49.541Z,6.23
2023-03-20T00:16:53.960Z,6.09
2023-03-20T00:21:58.945Z,6.03
2023-03-20T00:27:03.456Z,6.03
2023-03-20T00:32:15.565Z,5.94
2023-03-20T00:37:19.178Z,5.79
2023-03-20T00:42:23.221Z,5.80
2023-03-20T00:47:28.801Z,5.86
2023-03-20T00:52:32.627Z,5.86
2023-03-20T00:57:48.840Z,5.87
2023-03-20T01:02:56.781Z,5.82
2023-03-20T01:08:00.601Z,5.81
2023-03-20T01:13:04.496Z,5.83
2023-03-20T01:18:14.324Z,5.76
2023-03-20T01:23:17.986Z,5.76
2023-03-20T01:28:24.919Z,5.79
2023-03-20T01:33:29.839Z,5.82
2023-03-20T01:38:33.874Z,5.79
2023-03-20T01:43:38.526Z,5.86
2023-03-20T01:48:51.140Z,5.88
2023-03-20T01:54:00.105Z,5.85
2023-03-20T01:59:15.600Z,5.83
2023-03-20T02:04:28.324Z,5.82
2023-03-20T02:09:31.965Z,5.71
2023-03-20T02:14:37.350Z,5.69
2023-03-20T02:20:15.247Z,5.69
2023-03-20T02:25:45.894Z,5.75
2023-03-20T02:31:12.039Z,5.84
2023-03-20T02:36:37.637Z,5.87
2023-03-20T02:42:03.727Z,5.91
2023-03-20T02:47:34.689Z,5.89
2023-03-20T02:53:07.494Z,5.96
2023-03-20T02:58:28.827Z,6.04
2023-03-20T03:03:45.166Z,6.07
2023-03-20T03:08:56.561Z,6.09
2023-03-20T03:14:02.434Z,6.14
2023-03-20T03:19:22.035Z,6.08
2023-03-20T03:24:40.429Z,6.01
2023-03-20T03:30:18.681Z,5.98
2023-03-20T03:35:23.925Z,6.01
2023-03-20T03:41:06.524Z,5.95
2023-03-20T03:46:23.178Z,5.85
2023-03-20T03:51:34.390Z,5.86
2023-03-20T03:56:43.303Z,5.77
2023-03-20T04:01:49.635Z,5.84
2023-03-20T04:06:53.524Z,5.84
2023-03-20T04:11:57.221Z,5.84
2023-03-20T04:17:00.966Z,5.79
2023-03-20T04:22:04.444Z,5.76
2023-03-20T04:27:08.236Z,5.69
2023-03-20T04:32:12.114Z,5.66
2023-03-20T04:37:16.132Z,5.62
2023-03-20T04:42:19.873Z,5.62
2023-03-20T04:47:23.602Z,5.54
2023-03-20T04:52:27.543Z,5.46
2023-03-20T04:57:32.303Z,5.52
2023-03-20T05:02:36.104Z,5.52
2023-03-20T05:07:40.264Z,5.39
2023-03-20T05:12:44.477Z,5.36
2023-03-20T05:17:51.558Z,5.31
2023-03-20T05:22:55.627Z,5.42
2023-03-20T05:27:59.539Z,5.45
2023-03-20T05:33:03.798Z,5.57
2023-03-20T05:38:08.441Z,5.78
2023-03-20T05:43:12.848Z,5.87
2023-03-20T05:48:18.352Z,6.08
2023-03-20T05:53:22.866Z,6.35
2023-03-20T05:58:27.188Z,6.57
2023-03-20T06:03:31.189Z,6.63
2023-03-20T06:08:37.003Z,6.62
2023-03-20T06:13:40.719Z,6.70
2023-03-20T06:18:44.407Z,6.83
2023-03-20T06:23:48.374Z,6.94
2023-03-20T06:28:52.433Z,7.05
2023-03-20T06:33:57.143Z,7.22
2023-03-20T06:39:00.967Z,7.38
2023-03-20T06:44:05.000Z,7.68
2023-03-20T06:49:08.970Z,7.90
2023-03-20T06:54:12.855Z,8.28
2023-03-20T06:59:16.575Z,8.86
2023-03-20T07:04:21.031Z,9.39
2023-03-20T07:09:25.594Z,9.69
2023-03-20T07:14:29.411Z,10.03
2023-03-20T07:19:33.218Z,10.14
2023-03-20T07:24:37.060Z,10.09
2023-03-20T07:29:41.585Z,10.05
2023-03-20T07:34:45.629Z,10.08
2023-03-20T07:39:49.645Z,10.04
2023-03-20T07:44:53.477Z,10.13
2023-03-20T07:49:58.427Z,10.28
2023-03-20T07:55:02.461Z,10.33
2023-03-20T08:00:07.721Z,10.37
2023-03-20T08:05:11.753Z,10.32
2023-03-20T08:10:16.979Z,10.07
2023-03-20T08:15:20.651Z,9.90
2023-03-20T08:20:24.554Z,9.84
2023-03-20T08:25:33.030Z,9.92
2023-03-20T08:30:37.674Z,9.99
2023-03-20T08:35:41.800Z,10.01
2023-03-20T08:40:45.903Z,10.06
2023-03-20T08:45:49.797Z,10.17
2023-03-20T08:50:55.606Z,10.29
2023-03-20T08:55:59.331Z,10.35
2023-03-20T09:01:08.943Z,10.24
2023-03-20T09:06:13.131Z,10.35
2023-03-20T09:11:17.667Z,10.53
2023-03-20T09:16:21.725Z,10.68
2023-03-20T09:21:26.032Z,10.79
2023-03-20T09:26:31.471Z,10.98
2023-03-20T09:31:35.466Z,11.11
2023-03-20T09:36:39.465Z,11.17
2023-03-20T09:41:57.230Z,11.18
2023-03-20T09:47:41.396Z,11.10
2023-03-20T09:52:55.285Z,11.21
2023-03-20T09:58:13.160Z,11.33
2023-03-20T10:03:35.145Z,11.40
2023-03-20T10:08:39.833Z,11.49
2023-03-20T10:13:54.470Z,11.76
2023-03-20T10:19:10.272Z,12.08
2023-03-20T10:24:34.313Z,12.29
2023-03-20T10:30:22.346Z,12.58
2023-03-20T10:36:04.199Z,12.90
2023-03-20T10:41:20.203Z,13.24
2023-03-20T10:46:40.160Z,13.41
2023-03-20T10:52:04.952Z,13.63
2023-03-20T10:57:23.575Z,13.94
2023-03-20T11:02:32.614Z,14.02
2023-03-20T11:07:38.881Z,13.97
2023-03-20T11:12:48.940Z,13.74
2023-03-20T11:18:00.216Z,13.38
2023-03-20T11:23:36.225Z,13.19
2023-03-20T11:28:58.017Z,13.09
2023-03-20T11:34:11.961Z,12.93
2023-03-20T11:39:30.114Z,13.09
2023-03-20T11:44:37.130Z,13.27
2023-03-20T11:49:55.370Z,13.28
2023-03-20T11:55:07.283Z,13.20
2023-03-20T12:00:23.112Z,13.09
2023-03-20T12:05:38.198Z,12.91
2023-03-20T12:11:33.120Z,12.90
2023-03-20T12:16:38.341Z,12.97
2023-03-20T12:22:20.077Z,13.18
2023-03-20T12:27:36.837Z,13.30
2023-03-20T12:32:59.216Z,13.22
2023-03-20T12:38:04.349Z,13.23
2023-03-20T12:43:30.288Z,13.30
2023-03-20T12:49:07.638Z,13.54
2023-03-20T12:55:02.439Z,13.81
2023-03-20T13:00:23.766Z,14.04
2023-03-20T13:05:44.203Z,14.09
2023-03-20T13:11:16.769Z,14.33
2023-03-20T13:16:59.335Z,14.25
2023-03-20T13:22:36.069Z,14.25
2023-03-20T13:28:15.976Z,14.63
2023-03-20T13:33:44.816Z,14.79
2023-03-20T13:39:08.003Z,14.78
2023-03-20T13:44:15.635Z,14.97
2023-03-20T13:49:31.600Z,15.11
2023-03-20T13:55:11.998Z,15.35
2023-03-20T14:00:44.457Z,15.38
2023-03-20T14:05:49.750Z,15.47
2023-03-20T14:11:38.022Z,15.70
2023-03-20T14:16:43.169Z,15.82
2023-03-20T14:21:49.378Z,15.69
2023-03-20T14:27:00.875Z,15.36
2023-03-20T14:32:14.825Z,15.03
2023-03-20T14:37:38.735Z,14.82
2023-03-20T14:43:19.057Z,14.63
2023-03-20T14:48:42.278Z,14.41
2023-03-20T14:54:24.892Z,14.34
2023-03-20T14:59:33.352Z,14.30
2023-03-20T15:04:43.120Z,14.33
2023-03-20T15:09:52.004Z,14.28
2023-03-20T15:15:05.873Z,14.21
2023-03-20T15:20:29.773Z,14.20
2023-03-20T15:25:44.889Z,14.15
2023-03-20T15:30:51.660Z,14.05
2023-03-20T15:35:57.401Z,13.91
2023-03-20T15:41:05.625Z,13.87
2023-03-20T15:46:19.134Z,13.80
2023-03-20T15:51:27.775Z,13.66
2023-03-20T15:56:31.630Z,13.61
2023-03-20T16:01:35.872Z,13.57
2023-03-20T16:06:56.601Z,13.49
2023-03-20T16:12:03.480Z,13.48
2023-03-20T16:17:07.578Z,13.43
2023-03-20T16:22:45.477Z,13.30
2023-03-20T16:27:52.499Z,13.10
2023-03-20T16:33:10.392Z,13.00
2023-03-20T16:38:37.877Z,12.90
2023-03-20T16:43:41.546Z,12.74
2023-03-20T16:48:45.206Z,12.67
2023-03-20T16:53:54.765Z,12.40
2023-03-20T16:58:58.704Z,12.18
2023-03-20T17:04:34.636Z,12.05
2023-03-20T17:10:16.314Z,11.82
2023-03-20T17:15:25.734Z,11.49
2023-03-20T17:20:31.313Z,11.27
2023-03-20T17:25:35.255Z,11.06
2023-03-20T17:30:40.703Z,10.90
2023-03-20T17:35:45.872Z,10.76
2023-03-20T17:40:51.876Z,10.69
2023-03-20T17:45:56.046Z,10.61
2023-03-20T17:51:00.431Z,10.50
2023-03-20T17:56:16.981Z,10.43
2023-03-20T18:01:21.094Z,10.35
2023-03-20T18:06:32.639Z,10.24
2023-03-20T18:11:37.337Z,10.12
2023-03-20T18:16:41.459Z,10.05
2023-03-20T18:21:45.587Z,9.95
2023-03-20T18:26:51.396Z,9.96
2023-03-20T18:31:55.646Z,9.94
2023-03-20T18:37:00.564Z,9.95
2023-03-20T18:42:05.426Z,9.95
2023-03-20T18:47:12.670Z,9.90
2023-03-20T18:52:17.172Z,9.87
2023-03-20T18:57:22.898Z,9.80
2023-03-20T19:02:27.225Z,9.78
2023-03-20T19:07:31.618Z,9.71
2023-03-20T19:12:38.402Z,9.65
2023-03-20T19:17:43.971Z,9.66
2023-03-20T19:22:48.408Z,9.44
2023-03-20T19:27:52.890Z,9.16
2023-03-20T19:32:57.627Z,8.92
2023-03-20T19:38:05.948Z,8.85
2023-03-20T19:43:11.678Z,9.00
2023-03-20T19:48:19.516Z,9.12
2023-03-20T19:53:30.241Z,9.16
2023-03-20T19:58:34.848Z,9.14
2023-03-20T20:03:43.580Z,9.15
2023-03-20T20:08:49.290Z,9.11
2023-03-20T20:14:10.518Z,8.90
2023-03-20T20:19:17.426Z,8.81
2023-03-20T20:24:22.496Z,8.70
2023-03-20T20:29:26.140Z,8.65
2023-03-20T20:39:55.406Z,8.64
2023-03-20T20:44:59.232Z,8.58
2023-03-20T20:50:04.843Z,8.59
2023-03-20T20:55:22.592Z,8.66
2023-03-20T21:00:45.301Z,8.80
2023-03-20T21:05:52.472Z,8.89
2023-03-20T21:10:56.649Z,8.98
2023-03-20T21:16:00.854Z,9.01
2023-03-20T21:21:11.178Z,9.02
2023-03-20T21:26:15.096Z,9.02
2023-03-20T21:31:28.033Z,9.08
2023-03-20T21:36:35.178Z,9.14
2023-03-20T21:41:41.830Z,9.17
2023-03-20T21:47:19.156Z,9.12
2023-03-20T22:03:28.909Z,9.10
2023-03-20T22:14:54.636Z,8.86
2023-03-20T22:25:37.582Z,8.58
2023-03-20T22:42:06.923Z,8.42
2023-03-20T22:46:47.807Z,8.37
2023-03-20T22:52:14.704Z,8.34
2023-03-20T22:57:19.820Z,8.35
2023-03-20T23:02:24.243Z,8.35
2023-03-20T23:07:28.372Z,8.30
2023-03-20T23:12:32.727Z,8.28
2023-03-20T23:17:36.428Z,8.26
2023-03-20T23:22:40.373Z,8.20
2023-03-20T23:27:44.254Z,8.18
2023-03-20T23:32:47.909Z,8.21
2023-03-20T23:37:51.784Z,8.20
2023-03-20T23:42:57.830Z,8.15
2023-03-20T23:48:01.570Z,8.03
2023-03-20T23:58:31.100Z,7.96
